Time;durP1;ratioP1;P1;durP2;ratioP2;P2;SDS_P1;SDS_P2;PMS_P1;PMS_P2;Temp;Humidity;BMP_temperature;BMP_pressure;BME280_temperature;BME280_humidity;BME280_pressure;Samples;Min_cycle;Max_cycle;Signal;HPM_P1;HPM_P2
2022/12/12 00:01:36;;;;;;;14.15;9.27;;;-4.20;99.90;;;;;;5007525;28;20046;-81
2022/12/12 00:04:04;;;;;;;9.63;6.63;;;-4.20;99.90;;;;;;5007943;28;20038;-82
2022/12/12 00:06:31;;;;;;;10.65;7.32;;;-4.20;99.90;;;;;;5007240;28;20046;-82
2022/12/12 00:08:59;;;;;;;12.55;7.75;;;-4.20;99.90;;;;;;5006483;28;20061;-82
2022/12/12 00:11:27;;;;;;;10.77;6.97;;;-4.20;99.90;;;;;;5006458;28;20662;-81
2022/12/12 00:13:55;;;;;;;16.02;8.45;;;-4.20;99.90;;;;;;5007611;28;20492;-82
2022/12/12 00:16:24;;;;;;;9.73;7.53;;;-4.20;99.90;;;;;;5006776;28;20049;-82
2022/12/12 00:18:53;;;;;;;7.50;6.50;;;-4.20;99.90;;;;;;5008702;28;20060;-81
2022/12/12 00:21:23;;;;;;;9.25;8.05;;;-4.10;99.90;;;;;;5025762;28;20068;-82
2022/12/12 00:23:51;;;;;;;12.85;8.15;;;-4.10;99.90;;;;;;5027612;28;20037;-82
2022/12/12 00:26:24;;;;;;;22.10;9.73;;;-4.10;99.90;;;;;;4997015;28;20402;-81
2022/12/12 00:28:52;;;;;;;12.93;8.82;;;-4.10;99.90;;;;;;4986092;28;20421;-81
2022/12/12 00:31:20;;;;;;;11.05;8.07;;;-4.10;99.90;;;;;;4988590;28;20050;-82
2022/12/12 00:33:54;;;;;;;10.23;8.70;;;-4.10;99.90;;;;;;4987042;28;20034;-81
2022/12/12 00:36:25;;;;;;;10.18;7.05;;;-4.10;99.90;;;;;;4988955;28;20379;-81
2022/12/12 00:38:54;;;;;;;11.55;7.68;;;-4.10;99.90;;;;;;4999897;28;20038;-82
2022/12/12 00:41:22;;;;;;;14.13;10.30;;;-4.10;99.90;;;;;;5007853;28;20077;-82
2022/12/12 00:43:50;;;;;;;10.20;8.82;;;-4.10;99.90;;;;;;5008932;28;20413;-81
2022/12/12 00:46:20;;;;;;;13.23;8.40;;;-4.10;99.90;;;;;;5012103;28;20066;-81
2022/12/12 00:48:49;;;;;;;10.60;7.32;;;-4.10;99.90;;;;;;5011305;28;20054;-81
2022/12/12 00:51:19;;;;;;;16.50;10.15;;;-4.10;99.90;;;;;;5011021;28;20054;-81
2022/12/12 00:53:48;;;;;;;11.73;9.02;;;-4.10;99.90;;;;;;5010796;28;20037;-81
2022/12/12 00:56:18;;;;;;;15.27;8.93;;;-4.10;99.90;;;;;;5011136;28;20054;-82
2022/12/12 00:58:49;;;;;;;17.38;11.65;;;-4.20;99.90;;;;;;5010341;28;20053;-81
2022/12/12 01:01:23;;;;;;;11.68;9.32;;;-4.20;99.90;;;;;;5009444;28;20042;-81
2022/12/12 01:03:51;;;;;;;16.70;9.73;;;-4.20;99.90;;;;;;5009241;28;20066;-81
2022/12/12 01:06:19;;;;;;;16.00;10.38;;;-4.20;99.90;;;;;;4993837;28;20068;-82
2022/12/12 01:08:47;;;;;;;13.43;7.90;;;-4.20;99.90;;;;;;5010626;28;20057;-81
2022/12/12 01:11:16;;;;;;;15.35;8.10;;;-4.20;99.90;;;;;;5009474;28;20050;-82
2022/12/12 01:13:49;;;;;;;11.27;8.55;;;-4.20;99.90;;;;;;5009896;28;20046;-81
2022/12/12 01:16:17;;;;;;;13.30;9.80;;;-4.20;99.90;;;;;;5008764;28;20040;-82
2022/12/12 01:18:45;;;;;;;19.55;11.20;;;-4.20;99.90;;;;;;5011086;28;20282;-81
2022/12/12 01:21:16;;;;;;;11.93;9.35;;;-4.20;99.90;;;;;;5010231;28;20061;-81
2022/12/12 01:23:44;;;;;;;12.15;9.27;;;-4.20;99.90;;;;;;5010144;28;20417;-81
2022/12/12 01:26:21;;;;;;;12.25;8.73;;;-4.20;99.90;;;;;;5006228;28;20054;-81
2022/12/12 01:28:49;;;;;;;10.98;8.00;;;-4.30;99.90;;;;;;4988964;28;20062;-81
2022/12/12 01:31:17;;;;;;;13.15;10.27;;;-4.30;99.90;;;;;;4991550;28;20046;-81
2022/12/12 01:33:45;;;;;;;9.90;7.38;;;-4.30;99.90;;;;;;4989448;28;20035;-81
2022/12/12 01:36:15;;;;;;;11.27;8.48;;;-4.30;99.90;;;;;;4989366;28;20251;-82
2022/12/12 01:38:45;;;;;;;14.98;9.27;;;-4.30;99.90;;;;;;5001341;28;20050;-82
2022/12/12 01:41:20;;;;;;;14.45;8.98;;;-4.30;99.90;;;;;;5008187;28;20045;-81
2022/12/12 01:43:48;;;;;;;18.05;8.18;;;-4.30;99.90;;;;;;5008877;28;20042;-81
2022/12/12 01:46:32;;;;;;;16.20;10.15;;;-4.30;99.90;;;;;;5010411;28;20058;-81
2022/12/12 01:49:29;;;;;;;10.95;7.53;;;-4.20;99.90;;;;;;5009815;28;20038;-81
2022/12/12 01:52:01;;;;;;;8.50;7.28;;;-4.20;99.90;;;;;;5007366;28;20049;-81
2022/12/12 01:54:38;;;;;;;16.20;8.38;;;-4.20;99.90;;;;;;5009018;28;20085;-82
2022/12/12 01:57:10;;;;;;;10.13;7.57;;;-4.20;99.90;;;;;;5009978;28;20053;-82
2022/12/12 01:59:39;;;;;;;17.67;9.13;;;-4.20;99.90;;;;;;5008757;28;20050;-81
2022/12/12 02:02:08;;;;;;;12.93;7.90;;;-4.20;99.90;;;;;;5009351;28;20065;-81
2022/12/12 02:04:37;;;;;;;12.98;8.88;;;-4.20;99.90;;;;;;5009627;28;20042;-81
2022/12/12 02:07:05;;;;;;;12.90;8.52;;;-4.20;99.90;;;;;;5004161;28;20050;-81
2022/12/12 02:09:34;;;;;;;15.40;9.55;;;-4.10;99.90;;;;;;4975418;28;20391;-81
2022/12/12 02:12:03;;;;;;;14.75;8.93;;;-4.10;99.90;;;;;;4989948;28;20035;-81
2022/12/12 02:14:34;;;;;;;14.90;8.35;;;-4.20;99.90;;;;;;4987793;28;20050;-81
2022/12/12 02:17:36;;;;;;;8.50;7.80;;;-4.20;99.90;;;;;;4990127;28;20066;-81
2022/12/12 02:20:26;;;;;;;15.43;8.88;;;-4.20;99.90;;;;;;5003707;28;20262;-81
2022/12/12 02:23:10;;;;;;;13.85;10.15;;;-4.20;99.90;;;;;;5029543;28;20049;-81
2022/12/12 02:25:40;;;;;;;12.38;9.38;;;-4.30;99.90;;;;;;5011078;28;20042;-81
2022/12/12 02:28:48;;;;;;;11.82;7.70;;;-4.30;99.90;;;;;;4988875;28;20042;-81
2022/12/12 02:31:47;;;;;;;11.80;8.40;;;-4.30;99.90;;;;;;4988456;28;20042;-81
2022/12/12 02:34:34;;;;;;;11.95;7.57;;;-4.30;99.90;;;;;;5001629;28;20050;-81
2022/12/12 02:37:07;;;;;;;13.90;9.27;;;-4.30;99.90;;;;;;4989694;28;20414;-81
2022/12/12 02:40:19;;;;;;;9.88;8.88;;;-4.30;99.90;;;;;;5009040;28;20057;-81
2022/12/12 02:43:04;;;;;;;18.88;8.82;;;-4.30;99.90;;;;;;4997566;28;20050;-81
2022/12/12 02:45:46;;;;;;;15.40;11.20;;;-4.30;99.90;;;;;;4990845;28;20053;-81
2022/12/12 02:48:29;;;;;;;13.20;8.50;;;-4.30;99.90;;;;;;5008862;28;20050;-81
2022/12/12 02:51:00;;;;;;;15.20;10.00;;;-4.30;99.90;;;;;;5008058;28;20418;-81
2022/12/12 02:53:28;;;;;;;11.15;9.10;;;-4.30;99.90;;;;;;5007413;28;20053;-81
2022/12/12 02:56:24;;;;;;;11.07;8.60;;;-4.40;99.90;;;;;;5007596;28;20413;-81
2022/12/12 02:58:52;;;;;;;11.02;8.25;;;-4.30;99.90;;;;;;5008201;28;20370;-81
2022/12/12 03:01:37;;;;;;;11.02;8.85;;;-4.40;99.90;;;;;;4990861;28;20046;-82
2022/12/12 03:07:48;;;;;;;12.55;8.25;;;-4.40;99.90;;;;;;5007983;28;20054;-81
2022/12/12 03:10:36;;;;;;;14.20;6.60;;;-4.50;99.90;;;;;;5005495;28;20049;-82
2022/12/12 03:13:29;;;;;;;8.90;6.22;;;-4.40;99.90;;;;;;5006720;28;20382;-81
2022/12/12 03:16:19;;;;;;;15.32;9.27;;;-4.40;99.90;;;;;;5007113;28;20501;-81
2022/12/12 03:19:08;;;;;;;14.48;9.52;;;-4.50;99.90;;;;;;5009137;28;20057;-81
2022/12/12 03:21:50;;;;;;;18.15;11.23;;;-4.40;99.90;;;;;;4989140;28;20046;-81
2022/12/12 03:24:36;;;;;;;;;;;-4.50;99.90;;;;;;4988016;28;20035;-81
2022/12/12 03:27:12;;;;;;;13.90;8.50;;;-4.50;99.90;;;;;;4997219;28;19943;-81
2022/12/12 03:29:49;;;;;;;10.20;9.00;;;-4.50;99.90;;;;;;5026367;28;20053;-82
2022/12/12 03:32:23;;;;;;;14.25;8.63;;;-4.60;99.90;;;;;;5028200;28;20041;-81
2022/12/12 03:34:57;;;;;;;12.98;8.80;;;-4.60;99.90;;;;;;5017959;28;20058;-81
2022/12/12 03:37:30;;;;;;;12.90;9.70;;;-4.70;99.90;;;;;;4997148;28;20046;-81
2022/12/12 03:40:08;;;;;;;20.30;9.93;;;-4.70;99.90;;;;;;4988105;28;20050;-82
2022/12/12 03:42:36;;;;;;;8.88;7.60;;;-4.60;99.90;;;;;;5007309;28;20072;-81
2022/12/12 03:45:14;;;;;;;10.80;9.15;;;-4.60;99.90;;;;;;5006164;28;20045;-81
2022/12/12 03:47:51;;;;;;;8.93;7.80;;;-4.70;99.90;;;;;;5008332;28;20050;-81
2022/12/12 03:50:21;;;;;;;10.32;7.43;;;-4.70;99.90;;;;;;5006796;28;20417;-81
2022/12/12 03:53:24;;;;;;;16.33;9.95;;;-4.70;99.90;;;;;;5007549;28;20053;-81
2022/12/12 03:56:04;;;;;;;8.82;7.70;;;-4.70;99.90;;;;;;4989115;28;20038;-81
2022/12/12 03:58:39;;;;;;;11.85;9.43;;;-4.80;99.90;;;;;;5006050;28;20488;-81
2022/12/12 04:01:09;;;;;;;12.23;8.93;;;-4.90;99.90;;;;;;5008049;28;20049;-81
2022/12/12 04:03:46;;;;;;;13.67;9.13;;;-4.80;99.90;;;;;;5008047;28;20046;-81
2022/12/12 04:06:27;;;;;;;17.77;10.18;;;-4.80;99.90;;;;;;5008184;28;20296;-82
2022/12/12 04:14:53;;;;;;;13.55;11.77;;;-4.80;99.90;;;;;;5007466;28;20040;-82
2022/12/12 04:17:31;;;;;;;14.02;7.85;;;-4.90;99.90;;;;;;5010109;28;20061;-81
2022/12/12 04:23:53;;;;;;;12.85;7.70;;;-5.00;99.90;;;;;;5030304;28;20057;-82
2022/12/12 04:26:39;;;;;;;11.30;9.57;;;-5.00;99.90;;;;;;4994046;28;20054;-81
2022/12/12 04:29:36;;;;;;;10.00;7.93;;;-5.00;99.90;;;;;;5005655;28;20042;-81
2022/12/12 04:32:12;;;;;;;13.75;8.85;;;-5.10;99.90;;;;;;4991961;28;20046;-82
2022/12/12 04:35:01;;;;;;;11.73;7.57;;;-5.10;99.90;;;;;;4992297;28;20042;-81
2022/12/12 04:37:34;;;;;;;18.17;10.50;;;-5.10;99.90;;;;;;4992017;28;20042;-82
2022/12/12 04:40:06;;;;;;;11.05;9.43;;;-5.10;99.90;;;;;;5010840;28;20793;-81
2022/12/12 04:42:36;;;;;;;;;;;-5.10;99.90;;;;;;5010752;28;20061;-81
2022/12/12 04:45:12;;;;;;;7.15;6.45;;;-5.00;99.90;;;;;;5008480;28;19932;-81
2022/12/12 04:47:43;;;;;;;12.82;8.23;;;-5.00;99.90;;;;;;5010226;28;20050;-81
2022/12/12 04:50:12;;;;;;;10.27;8.40;;;-5.00;99.90;;;;;;5010348;28;20053;-81
2022/12/12 04:52:41;;;;;;;9.68;5.75;;;-5.00;99.90;;;;;;5010748;28;20041;-81
2022/12/12 04:55:14;;;;;;;9.13;6.97;;;-5.00;99.90;;;;;;5009953;28;20069;-81
2022/12/12 04:57:47;;;;;;;13.75;8.18;;;-5.00;99.90;;;;;;5010995;28;20421;-81
2022/12/12 05:00:19;;;;;;;18.17;8.48;;;-5.00;99.90;;;;;;5009627;28;20417;-81
2022/12/12 05:03:08;;;;;;;15.80;9.48;;;-5.00;99.90;;;;;;5011449;28;20120;-81
2022/12/12 05:05:45;;;;;;;14.43;9.27;;;-5.00;99.90;;;;;;5010588;28;20429;-81
2022/12/12 05:08:27;;;;;;;13.63;8.18;;;-5.00;99.90;;;;;;5010862;28;20049;-81
2022/12/12 05:10:58;;;;;;;10.30;5.93;;;-5.00;99.90;;;;;;5010741;28;20058;-81
2022/12/12 05:13:32;;;;;;;8.55;6.43;;;-5.00;99.90;;;;;;5009814;28;20046;-82
2022/12/12 05:16:02;;;;;;;10.15;7.68;;;-5.00;99.90;;;;;;5008975;28;20133;-81
2022/12/12 05:18:30;;;;;;;16.30;8.68;;;-4.90;99.90;;;;;;5009033;28;20080;-82
2022/12/12 05:20:57;;;;;;;11.60;8.13;;;-5.00;99.90;;;;;;5029901;28;20041;-82
2022/12/12 05:23:25;;;;;;;19.83;11.43;;;-4.90;99.90;;;;;;5030656;28;20400;-82
2022/12/12 05:26:06;;;;;;;12.20;7.93;;;-4.90;99.90;;;;;;5003707;28;20046;-81
2022/12/12 05:28:36;;;;;;;11.82;8.65;;;-5.00;99.90;;;;;;4989234;28;20058;-82
2022/12/12 05:31:04;;;;;;;16.40;9.40;;;-4.90;99.90;;;;;;4991143;28;20066;-81
2022/12/12 05:33:32;;;;;;;13.70;8.23;;;-4.90;99.90;;;;;;4990836;28;20038;-81
2022/12/12 05:36:02;;;;;;;12.43;9.57;;;-4.90;99.90;;;;;;4990669;28;20057;-81
2022/12/12 05:38:29;;;;;;;12.07;8.45;;;-5.00;99.90;;;;;;4991153;28;20057;-81
2022/12/12 05:40:57;;;;;;;11.48;9.35;;;-5.00;99.90;;;;;;5002095;28;20402;-81
2022/12/12 05:43:24;;;;;;;10.35;7.65;;;-5.00;99.90;;;;;;5009537;28;20504;-81
2022/12/12 05:45:53;;;;;;;14.52;9.07;;;-5.00;99.90;;;;;;5010154;28;20413;-82
2022/12/12 05:48:21;;;;;;;13.95;9.60;;;-5.00;99.90;;;;;;5010040;28;20041;-81
2022/12/12 05:50:51;;;;;;;8.68;7.82;;;-5.10;99.90;;;;;;5010434;28;20053;-81
2022/12/12 05:53:19;;;;;;;15.40;8.13;;;-5.10;99.90;;;;;;5007965;28;20042;-81
2022/12/12 05:55:52;;;;;;;16.00;9.52;;;-5.10;99.90;;;;;;5010172;28;20041;-82
2022/12/12 05:58:19;;;;;;;13.43;9.27;;;-5.10;99.90;;;;;;5009102;28;20061;-81
2022/12/12 06:00:49;;;;;;;10.70;8.43;;;-5.10;99.90;;;;;;5009321;28;20042;-81
2022/12/12 06:03:17;;;;;;;7.93;6.75;;;-5.10;99.90;;;;;;5010287;28;20045;-81
2022/12/12 06:05:45;;;;;;;12.82;8.15;;;-5.10;99.90;;;;;;5008301;28;20049;-81
2022/12/12 06:08:14;;;;;;;14.05;7.60;;;-5.10;99.90;;;;;;5009786;28;20054;-80
2022/12/12 06:10:44;;;;;;;14.93;12.63;;;-5.10;99.90;;;;;;5009589;28;20057;-81
2022/12/12 06:13:12;;;;;;;7.95;6.07;;;-5.10;99.90;;;;;;5007119;28;20042;-80
2022/12/12 06:15:40;;;;;;;12.23;9.80;;;-5.20;99.90;;;;;;5008136;28;20056;-81
2022/12/12 06:18:08;;;;;;;12.63;9.15;;;-5.20;99.90;;;;;;5002781;28;20046;-81
2022/12/12 06:20:36;;;;;;;15.07;8.80;;;-5.20;99.90;;;;;;5002076;28;20046;-81
2022/12/12 06:23:04;;;;;;;12.63;9.57;;;-5.20;99.90;;;;;;5009816;28;20065;-80
2022/12/12 06:25:31;;;;;;;10.55;7.68;;;-5.20;99.90;;;;;;4990683;28;20395;-81
2022/12/12 06:27:59;;;;;;;13.07;8.15;;;-5.30;99.90;;;;;;4988258;28;20034;-81
2022/12/12 06:30:27;;;;;;;15.30;8.68;;;-5.30;99.90;;;;;;4998469;28;20041;-81
2022/12/12 06:32:55;;;;;;;8.48;7.28;;;-5.30;99.90;;;;;;5009159;28;20433;-81
2022/12/12 06:35:23;;;;;;;8.93;8.02;;;-5.30;99.90;;;;;;5006782;28;20057;-81
2022/12/12 06:37:50;;;;;;;9.15;8.25;;;-5.30;99.90;;;;;;5000351;28;20050;-82
2022/12/12 06:40:18;;;;;;;10.88;7.03;;;-5.30;99.90;;;;;;4998797;28;20054;-81
2022/12/12 06:42:46;;;;;;;11.45;7.68;;;-5.30;99.90;;;;;;5009547;28;20045;-81
2022/12/12 06:45:16;;;;;;;10.48;6.57;;;-5.30;99.90;;;;;;5007258;28;20046;-81
2022/12/12 06:47:46;;;;;;;8.73;7.85;;;-5.30;99.90;;;;;;5008842;28;20450;-81
2022/12/12 06:50:14;;;;;;;13.95;10.65;;;-5.30;99.90;;;;;;5007885;28;20046;-81
2022/12/12 06:52:49;;;;;;;11.85;8.85;;;-5.30;99.90;;;;;;5009029;28;20050;-81
2022/12/12 06:55:17;;;;;;;5.70;4.50;;;-5.30;99.90;;;;;;5009472;28;20046;-82
2022/12/12 06:57:44;;;;;;;13.15;7.47;;;-5.30;99.90;;;;;;5009406;28;20049;-81
2022/12/12 07:00:13;;;;;;;10.10;6.07;;;-5.30;99.90;;;;;;5005920;28;20742;-81
2022/12/12 07:02:40;;;;;;;14.25;8.98;;;-5.30;99.90;;;;;;5008060;28;20057;-81
2022/12/12 07:05:08;;;;;;;14.27;8.57;;;-5.30;99.90;;;;;;5009286;28;20050;-81
2022/12/12 07:07:35;;;;;;;9.55;8.60;;;-5.30;99.90;;;;;;5007717;28;20053;-81
2022/12/12 07:10:04;;;;;;;11.73;10.52;;;-5.30;99.90;;;;;;5007509;28;20441;-81
2022/12/12 07:12:32;;;;;;;10.82;8.30;;;-5.30;99.90;;;;;;5007132;28;20060;-81
2022/12/12 07:15:00;;;;;;;13.18;8.38;;;-5.40;99.90;;;;;;4965205;28;20051;-82
2022/12/12 07:17:30;;;;;;;15.60;9.63;;;-5.40;99.90;;;;;;4990501;28;20065;-81
2022/12/12 07:19:58;;;;;;;8.00;7.15;;;-5.30;99.90;;;;;;5009110;28;20045;-82
2022/12/12 07:22:26;;;;;;;7.75;7.05;;;-5.30;99.90;;;;;;5029059;28;20508;-81
2022/12/12 07:24:54;;;;;;;10.38;7.63;;;-5.20;99.90;;;;;;5022141;28;20038;-81
2022/12/12 07:27:21;;;;;;;8.85;7.43;;;-5.30;99.90;;;;;;5004233;28;20057;-80
2022/12/12 07:29:49;;;;;;;12.52;7.78;;;-5.30;99.90;;;;;;4986411;28;20042;-81
2022/12/12 07:32:16;;;;;;;10.88;6.50;;;-5.20;99.90;;;;;;4989454;28;20042;-81
2022/12/12 07:34:44;;;;;;;9.77;7.85;;;-5.20;99.90;;;;;;5008312;28;20054;-81
2022/12/12 07:37:12;;;;;;;9.65;8.15;;;-5.20;99.90;;;;;;4999096;28;20050;-81
2022/12/12 07:39:39;;;;;;;10.18;6.88;;;-5.20;99.90;;;;;;5007771;28;20532;-82
2022/12/12 07:42:07;;;;;;;9.00;7.47;;;-5.20;99.90;;;;;;5007006;28;20379;-81
2022/12/12 07:44:34;;;;;;;8.60;7.38;;;-5.20;99.90;;;;;;5006829;28;20057;-81
2022/12/12 07:47:03;;;;;;;11.07;8.05;;;-5.20;99.90;;;;;;5006630;28;20050;-81
2022/12/12 07:49:30;;;;;;;9.77;7.85;;;-5.10;99.90;;;;;;5007763;28;20437;-81
2022/12/12 07:51:58;;;;;;;10.02;5.60;;;-5.00;99.90;;;;;;5009609;28;20052;-81
2022/12/12 07:54:28;;;;;;;11.80;7.13;;;-5.00;99.90;;;;;;5012017;28;20057;-81
2022/12/12 07:56:57;;;;;;;7.47;5.90;;;-5.00;99.90;;;;;;5011982;28;20049;-82
2022/12/12 07:59:25;;;;;;;10.77;6.50;;;-4.90;99.90;;;;;;5011303;28;20525;-81
2022/12/12 08:01:53;;;;;;;15.98;6.93;;;-4.90;99.90;;;;;;4993899;28;20394;-82
2022/12/12 08:04:22;;;;;;;10.98;5.70;;;-4.80;99.90;;;;;;5009164;28;20056;-81
2022/12/12 08:06:50;;;;;;;9.38;5.40;;;-4.80;99.90;;;;;;5009626;28;20065;-82
2022/12/12 08:09:27;;;;;;;7.93;6.78;;;-4.70;99.90;;;;;;5012313;28;20460;-81
2022/12/12 08:11:57;;;;;;;9.32;7.90;;;-4.70;99.90;;;;;;5012328;28;20053;-81
2022/12/12 08:14:25;;;;;;;9.95;6.35;;;-4.70;99.90;;;;;;5010135;28;20049;-81
2022/12/12 08:16:53;;;;;;;7.35;6.18;;;-4.80;99.90;;;;;;5005703;28;20065;-81
2022/12/12 08:19:20;;;;;;;8.48;6.20;;;-4.70;99.90;;;;;;5009314;28;20685;-82
2022/12/12 08:21:48;;;;;;;7.70;5.82;;;-4.70;99.90;;;;;;5010289;28;20474;-82
2022/12/12 08:24:16;;;;;;;8.68;5.05;;;-4.70;99.90;;;;;;5011324;28;20088;-82
2022/12/12 08:26:44;;;;;;;11.35;7.10;;;-4.70;99.90;;;;;;5008612;28;20050;-82
2022/12/12 08:29:12;;;;;;;6.25;5.65;;;-4.70;99.90;;;;;;5010763;28;20050;-82
2022/12/12 08:31:41;;;;;;;7.68;6.90;;;-4.70;99.90;;;;;;5004435;28;20064;-82
2022/12/12 08:34:09;;;;;;;9.50;4.75;;;-4.70;99.90;;;;;;5011826;28;20046;-82
2022/12/12 08:36:37;;;;;;;10.57;5.47;;;-4.80;99.90;;;;;;5000928;28;20046;-82
2022/12/12 08:39:08;;;;;;;7.65;6.53;;;-4.90;99.90;;;;;;5006173;28;20061;-82
2022/12/12 08:41:39;;;;;;;7.07;5.03;;;-4.90;99.90;;;;;;5008637;28;20045;-82
2022/12/12 08:44:09;;;;;;;10.40;6.67;;;-4.90;99.90;;;;;;5009643;28;20042;-82
2022/12/12 08:46:37;;;;;;;10.32;5.65;;;-4.90;99.90;;;;;;4991964;28;20757;-82
2022/12/12 08:49:05;;;;;;;7.13;6.40;;;-4.90;99.90;;;;;;5001453;28;20523;-82
2022/12/12 08:51:34;;;;;;;6.20;5.38;;;-4.80;99.90;;;;;;5009654;28;20069;-81
2022/12/12 08:54:01;;;;;;;6.13;5.53;;;-4.90;99.90;;;;;;5011244;28;20505;-82
2022/12/12 08:56:29;;;;;;;6.97;5.97;;;-4.90;99.90;;;;;;5009157;28;20137;-82
2022/12/12 08:59:01;;;;;;;7.38;6.63;;;-4.90;99.90;;;;;;5008899;28;20065;-82
2022/12/12 09:01:28;;;;;;;10.43;6.57;;;-4.90;99.90;;;;;;4989532;28;20042;-82
2022/12/12 09:03:56;;;;;;;7.13;5.50;;;-4.80;99.90;;;;;;4993644;28;20058;-83
2022/12/12 09:06:26;;;;;;;10.27;7.10;;;-4.80;99.90;;;;;;4998297;28;20058;-82
2022/12/12 09:08:55;;;;;;;6.22;5.15;;;-4.70;99.90;;;;;;5010839;28;20505;-82
2022/12/12 09:11:23;;;;;;;6.57;5.85;;;-4.70;99.90;;;;;;5009832;28;20510;-82
2022/12/12 09:13:51;;;;;;;6.93;5.55;;;-4.60;99.90;;;;;;5009736;28;20041;-82
2022/12/12 09:16:20;;;;;;;5.85;5.35;;;-4.70;99.90;;;;;;5010031;28;20050;-82
2022/12/12 09:18:48;;;;;;;6.00;4.22;;;-4.70;99.90;;;;;;5011157;28;20061;-82
2022/12/12 09:21:16;;;;;;;4.22;3.83;;;-4.70;99.90;;;;;;5027897;28;20045;-82
2022/12/12 09:23:47;;;;;;;4.78;4.22;;;-4.70;99.90;;;;;;5014909;28;20777;-82
2022/12/12 09:26:16;;;;;;;6.15;5.20;;;-4.60;99.90;;;;;;4996902;28;20050;-82
2022/12/12 09:28:48;;;;;;;5.72;5.20;;;-4.50;99.90;;;;;;4989896;28;20622;-82
2022/12/12 09:31:15;;;;;;;6.13;5.43;;;-4.20;99.90;;;;;;4990975;28;20525;-81
2022/12/12 09:33:43;;;;;;;6.38;5.80;;;-3.40;99.90;;;;;;4993010;28;20038;-82
2022/12/12 09:36:11;;;;;;;10.50;7.68;;;-3.40;99.90;;;;;;4991533;28;20050;-82
2022/12/12 09:38:40;;;;;;;6.28;5.53;;;-3.50;99.90;;;;;;5010626;28;20057;-81
2022/12/12 09:41:10;;;;;;;10.45;4.70;;;-3.60;99.90;;;;;;5010026;28;20050;-81
2022/12/12 09:43:44;;;;;;;;;;;-3.50;99.90;;;;;;5007690;28;20057;-81
2022/12/12 09:46:25;;;;;;;6.05;4.43;;;-3.50;99.90;;;;;;5003855;28;19926;-80
2022/12/12 09:49:05;;;;;;;5.78;4.22;;;-3.40;99.90;;;;;;4995679;28;20438;-80
2022/12/12 09:51:34;;;;;;;8.05;5.78;;;-3.20;99.90;;;;;;5006149;28;20578;-80
2022/12/12 09:54:02;;;;;;;7.63;4.30;;;-3.10;99.90;;;;;;5001067;28;20526;-80
2022/12/12 09:56:54;;;;;;;6.95;5.22;;;-3.00;99.90;;;;;;5004433;28;20060;-80
2022/12/12 09:59:51;;;;;;;7.45;5.72;;;-3.00;99.90;;;;;;5001786;28;20069;-80
2022/12/12 10:02:28;;;;;;;9.20;6.68;;;-3.10;99.90;;;;;;5051266;28;20516;-81
2022/12/12 10:05:33;;;;;;;7.85;6.97;;;-3.00;99.90;;;;;;5005832;28;20052;-81
2022/12/12 10:08:15;;;;;;;9.63;5.53;;;-2.90;99.90;;;;;;5001616;28;20042;-81
2022/12/12 10:10:47;;;;;;;5.45;4.93;;;-3.00;99.90;;;;;;4985875;28;20042;-81
2022/12/12 10:13:20;;;;;;;;;;;-2.70;99.90;;;;;;4991431;28;20050;-82
2022/12/12 10:15:55;;;;;;;8.30;5.80;;;-2.50;99.90;;;;;;4987036;28;19987;-82
2022/12/12 10:18:44;;;;;;;6.50;4.60;;;-2.40;99.90;;;;;;5004588;28;20494;-82
2022/12/12 10:21:20;;;;;;;5.90;4.35;;;-2.30;99.90;;;;;;5005175;28;20052;-82
2022/12/12 10:24:03;;;;;;;10.25;6.47;;;-2.10;99.90;;;;;;5007881;28;20504;-82
2022/12/12 10:26:31;;;;;;;5.00;4.00;;;-2.10;99.90;;;;;;5005553;28;20060;-82
2022/12/12 10:29:11;;;;;;;7.07;5.85;;;-2.20;99.90;;;;;;5000571;28;20043;-82
2022/12/12 10:31:57;;;;;;;5.85;5.13;;;-2.20;99.90;;;;;;4998446;28;20053;-82
2022/12/12 10:34:52;;;;;;;7.50;4.85;;;-2.30;99.90;;;;;;5002561;28;20058;-82
2022/12/12 10:37:24;;;;;;;4.85;4.43;;;-2.40;99.90;;;;;;4999815;28;20277;-82
2022/12/12 10:40:10;;;;;;;6.47;5.85;;;-2.50;99.90;;;;;;4996280;28;20536;-82
2022/12/12 10:42:45;;;;;;;4.32;3.80;;;-2.70;99.90;;;;;;5002721;28;20655;-82
2022/12/12 10:45:37;;;;;;;5.45;4.95;;;-2.50;99.90;;;;;;5003558;28;20045;-82
2022/12/12 10:48:06;;;;;;;7.15;4.45;;;-2.40;99.90;;;;;;4993941;28;20052;-82
2022/12/12 10:50:44;;;;;;;6.22;4.25;;;-2.10;99.90;;;;;;5003367;28;20050;-82
2022/12/12 10:53:12;;;;;;;7.28;5.78;;;-1.90;99.90;;;;;;5000539;28;20081;-83
2022/12/12 10:55:56;;;;;;;8.07;4.95;;;-1.70;99.90;;;;;;4990201;28;20382;-83
2022/12/12 10:58:26;;;;;;;9.45;5.25;;;-1.50;99.90;;;;;;4981214;28;20057;-82
2022/12/12 11:01:03;;;;;;;8.13;4.78;;;-1.30;99.90;;;;;;4975966;28;20057;-83
2022/12/12 11:03:51;;;;;;;6.15;4.57;;;-1.00;99.90;;;;;;4992376;28;20056;-84
2022/12/12 11:06:38;;;;;;;13.95;5.38;;;-0.90;99.90;;;;;;4997388;28;20066;-83
2022/12/12 11:09:07;;;;;;;8.15;4.65;;;-1.00;99.90;;;;;;4999481;28;20492;-83
2022/12/12 11:11:35;;;;;;;5.15;2.90;;;-1.30;99.90;;;;;;4996117;28;20048;-82
2022/12/12 11:14:19;;;;;;;4.15;3.60;;;-1.50;99.90;;;;;;4993754;28;20050;-82
2022/12/12 11:16:48;;;;;;;5.18;4.07;;;-1.80;99.90;;;;;;4980379;28;20570;-83
2022/12/12 11:19:22;;;;;;;7.53;4.00;;;-1.80;99.90;;;;;;4979650;28;20046;-83
2022/12/12 11:21:51;;;;;;;8.88;3.72;;;-1.50;99.90;;;;;;4995142;28;20377;-83
2022/12/12 11:24:21;;;;;;;5.38;3.20;;;-1.40;99.90;;;;;;5001624;28;20045;-82
2022/12/12 11:26:55;;;;;;;5.57;4.10;;;-1.30;99.90;;;;;;5003858;28;20445;-82
2022/12/12 11:29:35;;;;;;;4.93;3.20;;;-1.30;99.90;;;;;;5003279;28;20505;-81
2022/12/12 11:32:03;;;;;;;6.15;2.85;;;-1.50;99.90;;;;;;5003149;28;20419;-82
2022/12/12 11:34:33;;;;;;;4.55;3.15;;;-1.50;99.90;;;;;;5004839;28;20053;-83
2022/12/12 11:37:01;;;;;;;8.30;5.18;;;-1.50;99.90;;;;;;5001817;28;20061;-82
2022/12/12 11:39:40;;;;;;;3.38;3.08;;;-1.50;99.90;;;;;;4993787;28;20054;-82
2022/12/12 11:42:14;;;;;;;4.18;3.75;;;-1.40;99.90;;;;;;4997597;28;20133;-82
2022/12/12 11:44:43;;;;;;;5.05;3.95;;;-1.30;99.90;;;;;;5002658;28;20064;-82
2022/12/12 11:47:26;;;;;;;3.22;2.92;;;-1.40;99.90;;;;;;4993266;28;20058;-82
2022/12/12 11:49:59;;;;;;;3.30;3.15;;;-1.70;99.90;;;;;;5000227;28;20046;-82
2022/12/12 11:52:33;;;;;;;3.30;3.03;;;-2.10;99.90;;;;;;5001822;28;20517;-82
2022/12/12 11:55:01;;;;;;;3.38;2.40;;;-2.20;99.90;;;;;;5004928;28;20497;-82
2022/12/12 11:57:41;;;;;;;3.22;3.03;;;-2.20;99.90;;;;;;4987526;28;20069;-83
2022/12/12 12:00:14;;;;;;;6.07;3.63;;;-2.30;99.90;;;;;;4995058;28;20553;-83
2022/12/12 12:02:52;;;;;;;6.72;4.10;;;-2.30;99.90;;;;;;5000933;28;20050;-83
2022/12/12 12:05:43;;;;;;;4.47;3.85;;;-2.10;99.90;;;;;;4989027;28;20050;-83
2022/12/12 12:08:22;;;;;;;4.65;3.47;;;-2.20;99.90;;;;;;4988366;28;20051;-82
2022/12/12 12:11:04;;;;;;;5.38;4.10;;;-2.40;99.90;;;;;;5002812;28;20421;-83
2022/12/12 12:14:28;;;;;;;5.88;3.05;;;-2.50;99.90;;;;;;5004061;28;20533;-83
2022/12/12 12:17:30;;;;;;;3.83;2.97;;;-2.60;99.90;;;;;;4938203;28;20055;-83
2022/12/12 12:20:05;;;;;;;6.35;5.57;;;-2.60;99.90;;;;;;4964272;28;20791;-83
2022/12/12 12:23:26;;;;;;;6.70;5.38;;;-2.60;99.90;;;;;;4978593;28;20058;-82
2022/12/12 12:26:00;;;;;;;10.45;6.47;;;-2.60;99.90;;;;;;4986665;28;20073;-82
2022/12/12 12:28:33;;;;;;;8.90;5.95;;;-2.60;99.90;;;;;;4986353;28;20806;-82
2022/12/12 12:31:04;;;;;;;5.65;4.63;;;-2.60;99.90;;;;;;4987303;28;20046;-82
2022/12/12 12:34:00;;;;;;;6.95;4.70;;;-2.70;99.90;;;;;;4993610;28;20050;-82
2022/12/12 12:36:54;;;;;;;7.38;5.55;;;-2.80;99.90;;;;;;4994136;28;20046;-82
2022/12/12 12:39:41;;;;;;;8.07;6.68;;;-2.90;99.90;;;;;;5009149;28;20243;-83
2022/12/12 12:42:23;;;;;;;7.50;4.57;;;-2.70;99.90;;;;;;5021478;28;20046;-83
2022/12/12 12:45:06;;;;;;;8.05;5.63;;;-2.50;99.90;;;;;;5007572;28;20054;-83
2022/12/12 12:47:51;;;;;;;8.23;5.57;;;-2.40;99.90;;;;;;5009677;28;20054;-83
2022/12/12 12:50:33;;;;;;;4.97;4.40;;;-2.50;99.90;;;;;;5002006;28;20062;-85
2022/12/12 12:53:05;;;;;;;;;;;-2.50;99.90;;;;;;4992268;28;20521;-84
2022/12/12 12:55:41;;;;;;;8.27;5.82;;;-2.70;99.90;;;;;;4991399;28;19926;-83
2022/12/12 12:58:20;;;;;;;4.68;3.83;;;-2.80;99.90;;;;;;4991252;28;20062;-83
2022/12/12 13:00:57;;;;;;;11.07;5.25;;;-2.90;99.90;;;;;;4995643;28;20046;-83
2022/12/12 13:03:33;;;;;;;7.93;6.15;;;-3.00;99.90;;;;;;5006538;28;20049;-83
2022/12/12 13:06:07;;;;;;;5.57;5.07;;;-3.10;99.90;;;;;;4978456;28;20046;-85
2022/12/12 13:08:51;;;;;;;5.93;4.90;;;-2.60;99.90;;;;;;4968811;28;20062;-83
2022/12/12 13:11:32;;;;;;;6.18;5.50;;;-2.50;99.90;;;;;;4980564;28;20329;-83
2022/12/12 13:14:17;;;;;;;10.00;6.57;;;-2.90;99.90;;;;;;4954553;28;20073;-83
2022/12/12 13:16:46;;;;;;;9.70;5.93;;;-2.50;99.90;;;;;;4987366;28;20178;-83
2022/12/12 13:19:34;;;;;;;7.32;5.03;;;-2.80;99.90;;;;;;4989312;28;20046;-85
2022/12/12 13:22:27;;;;;;;8.27;4.70;;;-3.00;99.90;;;;;;4990587;28;20057;-83
2022/12/12 13:25:10;;;;;;;6.22;5.57;;;-3.00;99.90;;;;;;4993329;28;20054;-83
2022/12/12 13:27:44;;;;;;;9.18;6.45;;;-3.30;99.90;;;;;;4986202;28;20050;-83
2022/12/12 13:30:35;;;;;;;7.78;4.53;;;-3.80;99.90;;;;;;4951813;28;20179;-84
2022/12/12 13:33:37;;;;;;;7.43;5.45;;;-4.10;99.90;;;;;;4968925;28;20050;-85